Time;durP1;ratioP1;P1;durP2;ratioP2;P2;SDS_P1;SDS_P2;PMS_P1;PMS_P2;Temp;Humidity;BMP_temperature;BMP_pressure;BME280_temperature;BME280_humidity;BME280_pressure;Samples;Min_cycle;Max_cycle;Signal;HPM_P1;HPM_P2
2022/03/18 00:00:52;;;;;;;26.83;23.00;;;10.10;99.90;;;;;;5064939;28;20194;-77
2022/03/18 00:03:19;;;;;;;30.70;25.92;;;10.00;99.90;;;;;;5063548;28;20215;-79
2022/03/18 00:05:46;;;;;;;34.40;27.25;;;9.90;99.90;;;;;;5065947;28;20699;-78
2022/03/18 00:08:14;;;;;;;29.88;25.63;;;9.90;99.90;;;;;;5066269;28;20233;-79
2022/03/18 00:10:42;;;;;;;30.60;25.73;;;9.80;99.90;;;;;;5067229;28;20217;-77
2022/03/18 00:13:09;;;;;;;38.35;30.35;;;9.70;99.90;;;;;;5066702;28;20214;-78
2022/03/18 00:15:37;;;;;;;41.55;33.63;;;9.70;99.90;;;;;;5064868;28;20688;-81
2022/03/18 00:18:04;;;;;;;40.28;33.83;;;9.60;99.90;;;;;;5069742;28;20608;-78
2022/03/18 00:20:31;;;;;;;48.40;35.83;;;9.50;99.90;;;;;;5065179;28;20197;-77
2022/03/18 00:22:58;;;;;;;40.10;33.45;;;9.50;99.90;;;;;;5065477;28;20240;-78
2022/03/18 00:25:27;;;;;;;49.05;36.92;;;9.50;99.90;;;;;;5061631;28;20688;-79
2022/03/18 00:27:54;;;;;;;34.03;28.98;;;9.50;99.90;;;;;;5066710;28;20218;-77
2022/03/18 00:30:21;;;;;;;35.00;29.58;;;9.40;99.90;;;;;;5067055;28;20443;-78
2022/03/18 00:32:51;;;;;;;36.35;29.33;;;9.50;99.90;;;;;;5059637;28;20227;-80
2022/03/18 00:35:19;;;;;;;34.85;28.90;;;9.50;99.90;;;;;;5070229;28;20194;-80
2022/03/18 00:37:46;;;;;;;31.27;26.63;;;9.50;99.90;;;;;;5068770;28;20218;-79
2022/03/18 00:40:14;;;;;;;32.40;27.50;;;9.50;99.90;;;;;;5066253;28;20199;-77
2022/03/18 00:42:42;;;;;;;31.55;27.35;;;9.50;99.90;;;;;;5067421;28;20222;-79
2022/03/18 00:45:10;;;;;;;31.17;26.70;;;9.50;99.90;;;;;;5067971;28;20663;-80
2022/03/18 00:53:06;;;;;;;29.52;24.67;;;9.50;99.90;;;;;;5066465;28;20224;-78
2022/03/18 00:55:34;;;;;;;34.42;28.58;;;9.50;99.90;;;;;;5061271;28;20193;-78
2022/03/18 00:58:02;;;;;;;30.70;27.30;;;9.60;99.90;;;;;;5061827;28;20218;-79
2022/03/18 01:00:29;;;;;;;33.58;27.40;;;9.60;99.90;;;;;;5062236;28;20237;-81
2022/03/18 01:02:56;;;;;;;29.65;25.00;;;9.60;99.90;;;;;;5064249;28;20214;-79
2022/03/18 01:05:24;;;;;;;27.30;22.98;;;9.60;99.90;;;;;;5067276;28;20217;-81
2022/03/18 01:07:51;;;;;;;24.77;21.95;;;9.70;99.90;;;;;;5064388;28;20218;-78
2022/03/18 01:10:18;;;;;;;27.40;22.83;;;9.70;99.90;;;;;;5061879;28;20194;-80
2022/03/18 01:12:45;;;;;;;24.70;21.63;;;9.70;99.90;;;;;;5064362;28;20217;-82
2022/03/18 01:15:14;;;;;;;28.15;22.45;;;9.70;99.90;;;;;;5060224;28;20194;-79
2022/03/18 01:17:41;;;;;;;25.60;22.90;;;9.70;99.90;;;;;;5064877;28;20637;-78
2022/03/18 01:20:09;;;;;;;25.83;21.50;;;9.70;99.90;;;;;;5066951;28;20201;-77
2022/03/18 01:22:37;;;;;;;24.85;22.13;;;9.70;99.90;;;;;;5066347;28;20202;-79
2022/03/18 01:25:06;;;;;;;26.23;22.00;;;9.70;99.90;;;;;;5064174;28;20194;-77
2022/03/18 01:27:33;;;;;;;24.63;21.17;;;9.70;99.90;;;;;;5063329;28;20276;-77
2022/03/18 01:30:00;;;;;;;24.95;20.85;;;9.70;99.90;;;;;;5065682;28;20201;-78
2022/03/18 01:32:28;;;;;;;25.40;21.13;;;9.70;99.90;;;;;;5059228;28;20202;-79
2022/03/18 01:34:55;;;;;;;22.75;20.17;;;9.70;99.90;;;;;;5069894;28;20194;-76
2022/03/18 01:37:22;;;;;;;28.00;22.17;;;9.70;99.90;;;;;;5064965;28;20194;-78
2022/03/18 01:39:49;;;;;;;31.00;22.73;;;9.70;99.90;;;;;;5069589;28;20227;-77
2022/03/18 01:42:16;;;;;;;26.98;22.13;;;9.70;99.90;;;;;;5071162;28;20198;-79
2022/03/18 01:44:47;;;;;;;26.52;22.92;;;9.60;99.90;;;;;;5065422;28;20671;-81
2022/03/18 01:47:14;;;;;;;27.52;22.80;;;9.60;99.90;;;;;;5061830;28;20190;-78
2022/03/18 01:49:43;;;;;;;25.67;22.23;;;9.60;99.90;;;;;;5066407;28;20222;-82
2022/03/18 01:52:11;;;;;;;24.50;20.85;;;9.60;99.90;;;;;;5068993;28;20628;-82
2022/03/18 01:54:45;;;;;;;24.40;20.98;;;9.60;99.90;;;;;;5066009;28;20222;-80
2022/03/18 01:57:14;;;;;;;25.23;20.73;;;9.60;99.90;;;;;;5069646;28;20206;-78
2022/03/18 01:59:41;;;;;;;23.73;20.73;;;9.60;99.90;;;;;;5065893;28;20276;-79
2022/03/18 02:02:08;;;;;;;25.42;22.50;;;9.60;99.90;;;;;;5066027;28;20195;-79
2022/03/18 02:04:36;;;;;;;23.77;19.38;;;9.60;99.90;;;;;;5064741;28;20214;-78
2022/03/18 02:07:05;;;;;;;24.13;21.45;;;9.60;99.90;;;;;;5063464;28;20281;-78
2022/03/18 02:09:33;;;;;;;25.52;21.95;;;9.60;99.90;;;;;;5065092;28;20316;-80
2022/03/18 02:12:02;;;;;;;24.90;22.20;;;9.60;99.90;;;;;;5067697;28;20202;-78
2022/03/18 02:14:33;;;;;;;23.95;21.35;;;9.60;99.90;;;;;;5059835;28;20222;-80
2022/03/18 02:17:01;;;;;;;23.20;20.52;;;9.60;99.90;;;;;;5066851;28;20201;-78
2022/03/18 02:19:29;;;;;;;25.55;21.17;;;9.60;99.90;;;;;;5062536;28;20504;-78
2022/03/18 02:21:57;;;;;;;25.40;20.63;;;9.60;99.90;;;;;;5067806;28;20240;-77
2022/03/18 02:24:26;;;;;;;22.55;20.10;;;9.50;99.90;;;;;;5070121;28;20214;-82
2022/03/18 02:26:54;;;;;;;25.83;21.67;;;9.50;99.90;;;;;;5067610;28;20194;-81
2022/03/18 02:29:23;;;;;;;23.27;20.77;;;9.50;99.90;;;;;;5068238;28;20631;-79
2022/03/18 02:31:51;;;;;;;22.65;18.77;;;9.50;99.90;;;;;;5060320;28;20656;-78
2022/03/18 02:34:18;;;;;;;23.45;20.20;;;9.50;99.90;;;;;;5062260;28;20214;-81
2022/03/18 02:36:45;;;;;;;21.25;18.95;;;9.50;99.90;;;;;;5068140;28;20210;-79
2022/03/18 02:39:13;;;;;;;23.15;20.23;;;9.50;99.90;;;;;;5065741;28;20307;-80
2022/03/18 02:41:41;;;;;;;23.45;20.92;;;9.40;99.90;;;;;;5066978;28;20285;-81
2022/03/18 02:44:09;;;;;;;24.15;21.55;;;9.50;99.90;;;;;;5064862;28;20217;-82
2022/03/18 02:46:36;;;;;;;26.85;21.30;;;9.50;99.90;;;;;;5063801;28;20190;-78
2022/03/18 02:49:04;;;;;;;24.38;21.27;;;9.50;99.90;;;;;;5064780;28;20225;-83
2022/03/18 02:51:31;;;;;;;23.52;20.13;;;9.50;99.90;;;;;;5067851;28;20202;-80
2022/03/18 02:53:59;;;;;;;21.52;19.23;;;9.50;99.90;;;;;;5066884;28;20498;-80
2022/03/18 02:56:26;;;;;;;25.13;20.27;;;9.50;99.90;;;;;;5069418;28;20198;-78
2022/03/18 02:58:54;;;;;;;21.88;19.58;;;9.50;99.90;;;;;;5067156;28;20214;-81
2022/03/18 03:01:21;;;;;;;25.73;20.33;;;9.50;99.90;;;;;;5065726;28;20578;-78
2022/03/18 03:03:48;;;;;;;23.88;20.73;;;9.50;99.90;;;;;;5066950;28;20268;-78
2022/03/18 03:09:00;;;;;;;21.98;19.50;;;9.50;99.90;;;;;;5061760;28;20649;-78
2022/03/18 03:11:29;;;;;;;22.55;19.38;;;9.40;99.90;;;;;;5063990;28;20264;-80
2022/03/18 03:13:57;;;;;;;23.38;18.73;;;9.40;99.90;;;;;;5067984;28;20597;-79
2022/03/18 03:16:25;;;;;;;21.23;18.92;;;9.50;99.90;;;;;;5068415;28;20191;-78
2022/03/18 03:18:52;;;;;;;22.38;19.25;;;9.50;99.90;;;;;;5064877;28;20273;-80
2022/03/18 03:21:19;;;;;;;25.02;20.17;;;9.50;99.90;;;;;;5066451;28;20195;-78
2022/03/18 03:23:46;;;;;;;22.67;18.95;;;9.50;99.90;;;;;;5064779;28;20267;-78
2022/03/18 03:26:14;;;;;;;22.55;19.88;;;9.50;99.90;;;;;;5070585;28;20217;-79
2022/03/18 03:28:42;;;;;;;20.67;17.60;;;9.50;99.90;;;;;;5066180;28;20225;-79
2022/03/18 03:31:11;;;;;;;22.50;18.88;;;9.50;99.90;;;;;;5065785;28;20199;-80
2022/03/18 03:33:39;;;;;;;20.92;18.35;;;9.50;99.90;;;;;;5066882;28;20260;-78
2022/03/18 03:36:06;;;;;;;21.80;19.33;;;9.50;99.90;;;;;;5068856;28;20198;-79
2022/03/18 03:48:56;;;;;;;22.50;19.75;;;9.50;99.90;;;;;;5809988;23;20222;-76
2022/03/18 03:51:24;;;;;;;28.73;22.70;;;9.40;99.90;;;;;;5034674;28;20210;-75
2022/03/18 03:53:51;;;;;;;24.25;21.67;;;9.50;99.90;;;;;;5013872;28;20278;-76
2022/03/18 03:56:18;;;;;;;22.95;19.77;;;9.40;99.90;;;;;;5023504;28;20199;-76
2022/03/18 03:58:45;;;;;;;23.20;19.70;;;9.40;99.90;;;;;;5033336;28;20709;-75
2022/03/18 04:01:13;;;;;;;22.23;19.67;;;9.40;99.90;;;;;;5033275;28;20199;-77
2022/03/18 04:03:40;;;;;;;26.85;21.15;;;9.40;99.90;;;;;;5030861;28;20673;-76
2022/03/18 04:06:09;;;;;;;22.83;19.92;;;9.40;99.90;;;;;;5045730;28;20198;-75
2022/03/18 04:08:36;;;;;;;22.25;19.67;;;9.40;99.90;;;;;;5036496;28;20194;-75
2022/03/18 04:11:04;;;;;;;24.63;19.98;;;9.40;99.90;;;;;;5054108;28;20195;-75
2022/03/18 04:13:31;;;;;;;23.08;20.20;;;9.40;99.90;;;;;;5034211;28;20198;-75
2022/03/18 04:15:58;;;;;;;23.67;20.90;;;9.40;99.90;;;;;;5041995;28;20192;-76
2022/03/18 04:18:25;;;;;;;22.90;19.67;;;9.40;99.90;;;;;;5033147;28;20188;-75
2022/03/18 04:20:52;;;;;;;21.33;19.08;;;9.40;99.90;;;;;;5034084;28;20286;-75
2022/03/18 04:23:21;;;;;;;20.58;18.33;;;9.40;99.90;;;;;;5033744;28;20191;-76
2022/03/18 04:25:51;;;;;;;19.52;17.45;;;9.50;99.90;;;;;;5030958;28;20223;-75
2022/03/18 04:28:18;;;;;;;19.73;17.23;;;9.50;99.90;;;;;;5039355;28;20199;-76
2022/03/18 04:30:45;;;;;;;19.83;17.30;;;9.40;99.90;;;;;;5032647;28;20231;-75
2022/03/18 04:33:12;;;;;;;23.40;19.73;;;9.50;99.90;;;;;;5033381;28;20203;-75
2022/03/18 04:35:39;;;;;;;24.27;20.38;;;9.50;99.90;;;;;;5013463;28;20235;-75
2022/03/18 04:38:07;;;;;;;24.48;19.92;;;9.40;99.90;;;;;;5033313;28;20192;-75
2022/03/18 04:40:35;;;;;;;22.48;18.38;;;9.40;99.90;;;;;;5032393;28;20254;-76
2022/03/18 04:43:02;;;;;;;20.85;18.30;;;9.40;99.90;;;;;;5033236;28;20199;-76
2022/03/18 04:45:30;;;;;;;22.40;19.35;;;9.40;99.90;;;;;;5016658;28;20231;-76
2022/03/18 04:47:57;;;;;;;22.58;19.02;;;9.40;99.90;;;;;;5033478;28;20196;-75
2022/03/18 04:50:24;;;;;;;21.27;18.52;;;9.40;99.90;;;;;;5033889;28;20223;-75
2022/03/18 04:52:52;;;;;;;22.98;19.77;;;9.40;99.90;;;;;;5039739;28;20198;-75
2022/03/18 04:55:19;;;;;;;23.92;21.10;;;9.30;99.90;;;;;;5032742;28;20638;-76
2022/03/18 04:57:48;;;;;;;20.35;18.10;;;9.30;99.90;;;;;;5033530;28;20211;-76
2022/03/18 05:31:15;;;;;;;24.67;20.00;;;9.20;99.90;;;;;;5420840;22;20224;-75
2022/03/18 05:33:43;;;;;;;24.42;20.80;;;9.20;99.90;;;;;;5013137;28;20196;-75
2022/03/18 05:36:10;;;;;;;22.80;20.38;;;9.20;99.90;;;;;;5012438;28;20316;-76
2022/03/18 05:38:37;;;;;;;23.83;20.30;;;9.20;99.90;;;;;;5015282;28;20192;-75
2022/03/18 05:41:04;;;;;;;21.48;18.60;;;9.30;99.90;;;;;;5032199;28;20220;-75
2022/03/18 05:43:33;;;;;;;22.05;19.65;;;9.30;99.90;;;;;;5032797;28;20208;-75
2022/03/18 05:46:01;;;;;;;28.30;22.38;;;9.30;99.90;;;;;;5032883;28;20313;-75
2022/03/18 05:48:29;;;;;;;24.25;20.75;;;9.30;99.90;;;;;;5032654;28;20203;-75
2022/03/18 05:50:56;;;;;;;26.08;22.20;;;9.30;99.90;;;;;;5032470;28;20230;-74
2022/03/18 06:46:04;;;;;;;25.40;22.58;;;9.80;99.90;;;;;;5935300;23;20564;-76
2022/03/18 06:48:33;;;;;;;25.02;22.05;;;9.90;99.90;;;;;;5048258;28;20183;-76
2022/03/18 06:51:00;;;;;;;27.30;22.95;;;10.00;99.90;;;;;;5043669;28;20766;-77
2022/03/18 06:53:27;;;;;;;29.42;24.63;;;10.10;99.90;;;;;;5052797;28;20202;-76
2022/03/18 06:55:57;;;;;;;28.77;24.27;;;10.10;99.90;;;;;;5051438;28;20203;-76
2022/03/18 06:58:24;;;;;;;29.15;23.80;;;10.20;99.90;;;;;;5054190;28;20207;-76
2022/03/18 07:00:52;;;;;;;30.55;24.63;;;10.30;99.90;;;;;;5054118;28;20215;-77
2022/03/18 07:03:20;;;;;;;32.47;26.63;;;10.50;99.90;;;;;;5043605;28;20196;-76
2022/03/18 07:05:47;;;;;;;32.50;26.67;;;10.60;99.90;;;;;;5043349;28;20676;-79
2022/03/18 07:08:14;;;;;;;33.17;27.63;;;10.80;99.90;;;;;;5052869;28;20218;-77
2022/03/18 07:10:41;;;;;;;31.42;27.48;;;10.90;99.90;;;;;;5053760;28;20211;-78
2022/03/18 07:13:08;;;;;;;33.53;28.13;;;11.00;99.90;;;;;;5052763;28;20276;-76
2022/03/18 07:15:35;;;;;;;32.42;28.10;;;11.20;99.90;;;;;;5053660;28;20198;-77
2022/03/18 07:18:03;;;;;;;30.60;25.88;;;11.30;99.90;;;;;;5054890;28;20632;-75
2022/03/18 07:20:34;;;;;;;33.75;25.98;;;11.40;99.90;;;;;;5052559;28;20663;-76
2022/03/18 07:23:02;;;;;;;35.75;28.38;;;11.60;99.90;;;;;;5051268;28;20649;-76
2022/03/18 07:25:30;;;;;;;38.10;28.20;;;11.70;99.90;;;;;;5058897;28;20199;-77
2022/03/18 07:27:57;;;;;;;35.92;30.23;;;11.70;99.90;;;;;;5060060;28;20281;-78
2022/03/18 07:30:24;;;;;;;31.38;26.75;;;11.90;99.90;;;;;;5050664;28;20626;-78
2022/03/18 07:32:51;;;;;;;41.97;31.10;;;12.00;99.90;;;;;;5046600;28;20223;-76
2022/03/18 07:35:19;;;;;;;36.40;31.13;;;12.20;99.90;;;;;;5053916;28;20256;-75
2022/03/18 07:37:48;;;;;;;35.33;29.13;;;12.30;99.90;;;;;;5053436;28;20784;-75
2022/03/18 07:40:16;;;;;;;35.13;29.15;;;12.40;99.90;;;;;;5053034;28;20301;-76
2022/03/18 07:42:45;;;;;;;38.13;29.65;;;12.50;99.90;;;;;;5051144;28;20219;-76
2022/03/18 07:45:14;;;;;;;35.17;28.40;;;12.70;99.90;;;;;;5054532;28;20617;-78
2022/03/18 07:47:41;;;;;;;33.10;27.33;;;12.80;99.90;;;;;;5049685;28;20211;-76
2022/03/18 07:50:08;;;;;;;33.08;29.05;;;12.80;99.90;;;;;;5049855;28;20219;-76
2022/03/18 07:52:35;;;;;;;30.70;26.13;;;12.90;99.90;;;;;;5056861;28;20695;-77
2022/03/18 07:55:04;;;;;;;33.30;28.17;;;13.00;99.90;;;;;;5051204;28;20238;-76
2022/03/18 07:57:31;;;;;;;32.83;26.38;;;13.10;99.90;;;;;;5033794;28;20223;-76
2022/03/18 07:59:58;;;;;;;37.63;29.65;;;13.20;99.90;;;;;;5048265;28;20623;-78
2022/03/18 08:02:25;;;;;;;33.85;28.40;;;13.30;99.90;;;;;;5053665;28;20219;-77
2022/03/18 08:04:52;;;;;;;35.45;29.30;;;13.30;99.90;;;;;;5055972;28;20241;-76
2022/03/18 08:07:20;;;;;;;37.65;29.38;;;13.20;99.90;;;;;;5044342;28;20666;-77
2022/03/18 08:09:47;;;;;;;34.92;28.15;;;13.20;99.90;;;;;;5053271;28;20213;-78
2022/03/18 08:12:15;;;;;;;29.75;26.27;;;13.30;99.90;;;;;;5063196;28;20218;-77
2022/03/18 08:14:43;;;;;;;32.63;26.90;;;13.40;99.90;;;;;;5055295;28;20198;-76
2022/03/18 08:17:13;;;;;;;34.35;28.13;;;13.60;99.90;;;;;;5047536;28;20226;-76
2022/03/18 08:19:40;;;;;;;33.30;26.85;;;13.70;99.90;;;;;;5053841;28;20226;-76
2022/03/18 08:22:07;;;;;;;37.75;29.52;;;13.90;99.90;;;;;;5053576;28;20227;-76
2022/03/18 08:24:34;;;;;;;34.97;28.08;;;14.10;99.90;;;;;;5053957;28;20265;-76
2022/03/18 08:27:01;;;;;;;41.58;28.95;;;14.10;99.90;;;;;;5053416;28;20227;-76
2022/03/18 08:29:30;;;;;;;40.75;33.03;;;14.10;99.90;;;;;;5053429;28;20630;-76
2022/03/18 08:31:57;;;;;;;37.50;28.80;;;14.00;99.90;;;;;;5052547;28;20219;-76
2022/03/18 08:34:24;;;;;;;38.75;30.42;;;13.90;99.90;;;;;;5046490;28;20210;-75
2022/03/18 08:36:51;;;;;;;47.33;33.38;;;14.00;99.90;;;;;;5052642;28;20265;-77
2022/03/18 08:39:18;;;;;;;39.60;30.98;;;14.10;99.90;;;;;;5053030;28;20285;-77
2022/03/18 08:41:45;;;;;;;34.13;28.27;;;14.20;99.90;;;;;;5051796;28;20298;-77
2022/03/18 08:44:14;;;;;;;35.50;30.42;;;14.20;99.90;;;;;;5054552;28;20191;-76
2022/03/18 08:46:42;;;;;;;31.88;27.50;;;14.10;99.90;;;;;;5052731;28;20297;-77
2022/03/18 08:49:09;;;;;;;33.17;27.10;;;14.10;99.90;;;;;;5044641;28;20230;-77
2022/03/18 08:51:36;;;;;;;31.10;27.27;;;14.20;99.90;;;;;;5047178;28;20223;-76
2022/03/18 08:54:04;;;;;;;35.38;27.40;;;14.20;99.90;;;;;;5053358;28;20251;-76
2022/03/18 08:56:31;;;;;;;32.75;26.85;;;14.20;99.90;;;;;;5052977;28;20221;-76
2022/03/18 08:58:59;;;;;;;33.00;25.48;;;14.30;99.90;;;;;;5051243;28;20696;-76
2022/03/18 09:01:26;;;;;;;27.60;23.70;;;14.40;99.90;;;;;;5059143;28;20264;-76
2022/03/18 09:03:54;;;;;;;34.05;27.23;;;14.60;99.90;;;;;;5073134;28;20198;-76
2022/03/18 09:06:21;;;;;;;41.17;28.75;;;14.60;99.90;;;;;;5073006;28;20248;-76
2022/03/18 09:08:48;;;;;;;31.35;26.42;;;14.50;99.90;;;;;;5073242;28;20218;-76
2022/03/18 09:11:15;;;;;;;28.83;23.98;;;14.50;99.90;;;;;;5061429;28;20199;-75
2022/03/18 09:13:42;;;;;;;30.50;24.15;;;14.60;99.90;;;;;;5051636;28;20209;-75
2022/03/18 09:16:10;;;;;;;28.40;25.40;;;14.80;99.90;;;;;;5051841;28;20199;-77
2022/03/18 09:18:37;;;;;;;33.05;26.52;;;15.00;99.90;;;;;;5059706;28;20229;-76
2022/03/18 09:21:05;;;;;;;31.75;25.23;;;15.10;99.90;;;;;;5053229;28;20639;-77
2022/03/18 09:23:32;;;;;;;36.33;26.08;;;15.20;99.90;;;;;;5048354;28;20284;-76
2022/03/18 09:26:00;;;;;;;37.22;24.77;;;15.30;99.90;;;;;;5044935;28;20210;-77
2022/03/18 09:28:28;;;;;;;38.50;26.85;;;15.60;99.90;;;;;;5048595;28;20226;-76
2022/03/18 09:30:55;;;;;;;31.52;25.35;;;15.70;99.90;;;;;;5051370;28;20194;-76
2022/03/18 09:33:22;;;;;;;30.98;26.20;;;15.80;99.90;;;;;;5050151;28;20226;-76
2022/03/18 09:35:49;;;;;;;29.33;24.38;;;15.90;99.90;;;;;;5048326;28;20203;-76
2022/03/18 09:38:18;;;;;;;36.05;27.50;;;16.00;99.90;;;;;;5041932;28;20220;-76
2022/03/18 09:40:45;;;;;;;31.58;25.67;;;16.20;99.90;;;;;;5047116;23;20775;-81
2022/03/18 09:43:13;;;;;;;30.08;25.90;;;16.20;99.90;;;;;;5015151;28;20271;-76
2022/03/18 09:45:42;;;;;;;31.88;24.73;;;16.30;99.90;;;;;;5021335;28;20195;-79
2022/03/18 09:48:11;;;;;;;32.45;26.10;;;16.30;99.90;;;;;;5027975;28;20770;-81
2022/03/18 09:50:39;;;;;;;31.42;24.05;;;16.30;99.90;;;;;;5018468;28;20223;-82
2022/03/18 09:53:07;;;;;;;38.13;26.05;;;16.50;99.90;;;;;;5008038;28;20235;-82
2022/03/18 09:55:37;;;;;;;30.23;24.05;;;16.80;99.90;;;;;;5008350;28;20958;-82
2022/03/18 09:58:05;;;;;;;34.42;24.95;;;17.00;99.90;;;;;;5012590;28;20229;-85
2022/03/18 10:00:32;;;;;;;36.50;26.27;;;17.10;99.90;;;;;;5007601;28;20741;-86
2022/03/18 10:03:10;;;;;;;28.83;24.67;;;17.10;99.90;;;;;;5013040;28;20231;-77
2022/03/18 10:05:47;;;;;;;28.50;22.13;;;17.30;99.90;;;;;;5013738;28;20272;-77
2022/03/18 10:08:14;;;;;;;30.85;25.13;;;17.20;99.90;;;;;;5013642;28;20883;-79
2022/03/18 10:10:47;;;;;;;31.95;25.15;;;17.30;99.90;;;;;;5020782;28;20299;-79
2022/03/18 10:13:15;;;;;;;27.08;22.00;;;17.20;99.90;;;;;;5016434;28;20231;-78
2022/03/18 10:15:42;;;;;;;28.63;24.42;;;17.00;99.90;;;;;;5011310;28;20484;-77
2022/03/18 10:18:12;;;;;;;29.90;24.67;;;17.10;99.90;;;;;;5012861;28;20235;-80
2022/03/18 10:20:41;;;;;;;31.65;24.05;;;17.30;99.90;;;;;;5013039;28;20763;-79
2022/03/18 10:23:21;;;;;;;33.15;24.98;;;17.30;99.90;;;;;;5011401;28;20229;-77
2022/03/18 10:25:54;;;;;;;29.08;24.45;;;17.20;99.90;;;;;;5014874;28;20195;-80
2022/03/18 10:28:43;;;;;;;28.67;22.40;;;17.10;99.90;;;;;;5013942;28;20668;-79
2022/03/18 10:31:14;;;;;;;29.13;21.70;;;17.10;99.90;;;;;;5016259;28;20824;-83
2022/03/18 10:39:23;;;;;;;33.03;21.88;;;17.50;99.90;;;;;;5013070;28;20274;-81
2022/03/18 10:41:52;;;;;;;30.52;20.77;;;17.70;99.90;;;;;;5009033;28;20250;-80
2022/03/18 10:44:19;;;;;;;21.70;17.42;;;17.60;99.90;;;;;;5012797;28;20203;-84
2022/03/18 10:46:48;;;;;;;30.92;21.02;;;17.70;99.90;;;;;;5010621;28;20220;-81
2022/03/18 10:49:15;;;;;;;24.10;19.45;;;18.00;99.90;;;;;;5008849;28;20231;-84
2022/03/18 10:51:42;;;;;;;29.38;18.85;;;17.90;99.90;;;;;;5011621;28;20624;-81
2022/03/18 10:54:10;;;;;;;28.80;20.42;;;17.80;99.90;;;;;;5013402;28;20199;-85
2022/03/18 10:57:02;;;;;;;26.60;18.40;;;17.80;99.90;;;;;;5012055;28;20206;-81
2022/03/18 10:59:29;;;;;;;25.75;20.10;;;17.90;99.90;;;;;;5012197;28;20228;-80
2022/03/18 11:01:57;;;;;;;28.83;19.60;;;17.60;99.90;;;;;;5011991;28;20373;-79
2022/03/18 11:04:26;;;;;;;28.73;18.70;;;17.70;99.90;;;;;;5016045;28;20199;-79
2022/03/18 11:12:32;;;;;;;32.92;22.23;;;17.20;99.90;;;;;;5013830;28;20242;-78
2022/03/18 11:14:59;;;;;;;29.77;20.50;;;17.30;99.90;;;;;;5014740;28;20283;-86
2022/03/18 11:17:27;;;;;;;26.60;20.77;;;17.30;99.90;;;;;;5013089;28;20288;-83
2022/03/18 11:19:54;;;;;;;30.02;20.65;;;17.50;99.90;;;;;;5008796;28;20224;-82
2022/03/18 11:22:22;;;;;;;23.65;19.10;;;17.70;99.90;;;;;;5010764;28;20318;-78
2022/03/18 11:24:52;;;;;;;29.33;20.17;;;17.90;99.90;;;;;;5011199;28;20327;-84
2022/03/18 11:27:20;;;;;;;27.83;19.75;;;18.10;99.90;;;;;;5011604;28;20223;-81
2022/03/18 11:29:48;;;;;;;28.45;19.10;;;18.00;99.90;;;;;;5003619;28;20227;-86
2022/03/18 11:32:20;;;;;;;33.88;18.98;;;18.10;99.90;;;;;;4997191;28;20472;-81
2022/03/18 11:34:50;;;;;;;36.05;22.98;;;18.00;99.90;;;;;;5014117;28;20235;-78
2022/03/18 11:37:18;;;;;;;28.00;21.40;;;17.80;99.90;;;;;;5011209;28;20624;-77
2022/03/18 11:39:46;;;;;;;28.25;20.20;;;17.70;99.90;;;;;;5011933;28;20228;-82
2022/03/18 11:42:17;;;;;;;31.90;21.17;;;17.70;99.90;;;;;;5015004;28;20232;-80
2022/03/18 11:44:50;;;;;;;31.77;22.25;;;17.60;99.90;;;;;;5011512;28;20201;-78
2022/03/18 11:47:38;;;;;;;33.33;21.77;;;17.60;99.90;;;;;;5013693;28;20215;-79
2022/03/18 11:50:46;;;;;;;26.40;20.13;;;17.70;99.90;;;;;;5004250;28;21010;-79
2022/03/18 11:53:15;;;;;;;25.35;19.52;;;17.90;99.90;;;;;;5001371;28;20215;-78
2022/03/18 11:55:46;;;;;;;29.63;19.75;;;17.80;99.90;;;;;;5007558;28;20265;-80
2022/03/18 11:58:30;;;;;;;23.77;18.63;;;17.90;99.90;;;;;;5008064;28;20235;-79
2022/03/18 12:00:58;;;;;;;26.60;19.05;;;18.10;99.90;;;;;;5012919;28;20662;-78
2022/03/18 12:03:30;;;;;;;29.80;20.02;;;18.20;99.90;;;;;;5006126;28;20220;-79
2022/03/18 12:05:59;;;;;;;27.85;18.85;;;18.40;99.90;;;;;;5007283;28;20856;-78
2022/03/18 12:08:59;;;;;;;29.33;20.30;;;18.40;99.90;;;;;;5005491;28;20226;-80
2022/03/18 12:11:31;;;;;;;29.83;21.20;;;18.40;99.90;;;;;;5002096;28;20751;-77
2022/03/18 12:13:59;;;;;;;28.60;21.20;;;18.40;99.90;;;;;;4997458;28;20224;-81
2022/03/18 12:16:29;;;;;;;25.95;19.45;;;18.30;99.90;;;;;;5011012;28;20192;-78
2022/03/18 12:19:00;;;;;;;30.58;20.45;;;18.20;99.90;;;;;;5020690;28;20756;-85
2022/03/18 12:21:38;;;;;;;25.50;18.73;;;18.30;99.90;;;;;;5008864;28;20227;-80
2022/03/18 12:24:08;;;;;;;23.08;19.08;;;18.50;99.90;;;;;;5007105;28;20332;-80
2022/03/18 12:26:36;;;;;;;24.17;16.92;;;18.70;99.90;;;;;;5012054;28;20202;-81
2022/03/18 12:29:04;;;;;;;30.67;18.33;;;18.80;99.90;;;;;;5009033;28;20350;-81
2022/03/18 12:31:34;;;;;;;27.30;19.10;;;18.70;99.90;;;;;;5013466;28;20212;-77
2022/03/18 12:34:03;;;;;;;28.10;17.52;;;18.50;99.90;;;;;;5008973;28;20230;-77
2022/03/18 12:36:31;;;;;;;28.25;15.15;;;18.20;99.90;;;;;;5012857;28;20261;-81
2022/03/18 12:39:12;;;;;;;24.73;14.05;;;18.30;99.90;;;;;;5017226;28;20212;-85
2022/03/18 12:41:40;;;;;;;37.85;19.42;;;18.50;99.90;;;;;;5011737;28;20223;-86
2022/03/18 12:44:07;;;;;;;20.75;14.27;;;18.90;99.90;;;;;;5023120;28;20227;-81
2022/03/18 12:46:37;;;;;;;24.95;12.32;;;19.20;99.90;;;;;;5011811;28;20247;-84
2022/03/18 12:49:06;;;;;;;26.08;13.07;;;19.30;99.90;;;;;;5013164;28;20278;-78
2022/03/18 12:51:37;;;;;;;28.90;11.07;;;19.30;99.90;;;;;;5019272;28;20618;-81
2022/03/18 12:54:04;;;;;;;30.27;12.90;;;19.20;99.90;;;;;;5024531;28;20304;-81
2022/03/18 12:56:31;;;;;;;27.98;11.18;;;19.20;99.90;;;;;;5004117;28;20224;-81
2022/03/18 12:58:59;;;;;;;28.23;11.75;;;19.20;99.90;;;;;;5016408;28;20273;-81
2022/03/18 13:01:27;;;;;;;24.13;10.90;;;19.30;99.90;;;;;;5017022;28;20722;-80
2022/03/18 13:03:56;;;;;;;27.60;11.98;;;19.40;99.90;;;;;;5012601;28;20311;-83
2022/03/18 13:06:27;;;;;;;22.48;12.68;;;19.30;99.90;;;;;;5012854;28;20634;-79
2022/03/18 13:09:07;;;;;;;21.38;12.43;;;19.30;99.90;;;;;;5017055;28;20580;-82
2022/03/18 13:11:38;;;;;;;23.98;12.82;;;19.00;99.90;;;;;;5018010;28;20203;-81
2022/03/18 13:14:06;;;;;;;21.80;11.60;;;18.80;99.90;;;;;;5017122;28;20589;-84
2022/03/18 13:16:41;;;;;;;23.42;11.45;;;18.50;99.90;;;;;;5012376;28;20255;-86
2022/03/18 13:19:09;;;;;;;25.70;10.95;;;18.30;99.90;;;;;;4999624;28;20219;-82
2022/03/18 13:21:41;;;;;;;21.00;11.18;;;18.10;99.90;;;;;;5011358;28;20208;-86
2022/03/18 13:24:08;;;;;;;24.95;11.65;;;17.90;99.90;;;;;;5015688;28;20224;-80
2022/03/18 13:26:36;;;;;;;28.75;11.13;;;17.80;99.90;;;;;;5016506;28;20203;-82
2022/03/18 13:29:04;;;;;;;25.25;12.52;;;17.70;99.90;;;;;;5010122;28;20224;-81
2022/03/18 13:34:31;;;;;;;27.35;10.48;;;17.50;99.90;;;;;;5012881;28;20673;-89
2022/03/18 13:37:12;;;;;;;22.30;11.20;;;17.40;99.90;;;;;;5021421;28;20196;-86
2022/03/18 13:39:39;;;;;;;21.70;10.38;;;17.30;99.90;;;;;;5015319;28;20250;-84
2022/03/18 13:42:06;;;;;;;26.33;10.55;;;17.30;99.90;;;;;;5017084;28;20223;-85
2022/03/18 13:44:47;;;;;;;21.10;11.10;;;17.20;99.90;;;;;;5013767;28;20188;-77
2022/03/18 13:47:15;;;;;;;27.30;10.18;;;17.20;99.90;;;;;;5012621;28;20358;-83
2022/03/18 13:49:55;;;;;;;24.90;10.57;;;17.10;99.90;;;;;;5014030;28;20629;-81
2022/03/18 13:52:32;;;;;;;24.38;10.25;;;17.10;99.90;;;;;;5019272;28;20230;-78
2022/03/18 13:55:00;;;;;;;20.60;9.68;;;17.00;99.90;;;;;;5013656;28;20203;-78
2022/03/18 13:57:28;;;;;;;22.58;11.02;;;17.00;99.90;;;;;;5017159;28;20613;-79
2022/03/18 13:59:59;;;;;;;22.45;10.40;;;17.00;99.90;;;;;;5016797;28;20232;-80
2022/03/18 14:02:28;;;;;;;27.55;11.40;;;16.90;99.90;;;;;;5019043;28;20400;-79
2022/03/18 14:04:58;;;;;;;23.65;10.98;;;16.90;99.90;;;;;;5016066;28;20583;-79
2022/03/18 14:07:44;;;;;;;24.08;10.07;;;16.80;99.90;;;;;;5019548;28;20242;-78
2022/03/18 14:10:12;;;;;;;20.80;10.45;;;16.80;99.90;;;;;;5018310;28;20613;-78
2022/03/18 14:12:42;;;;;;;29.67;10.93;;;16.70;99.90;;;;;;5018008;28;20215;-80
2022/03/18 14:15:15;;;;;;;24.23;11.25;;;16.70;99.90;;;;;;5017685;28;20199;-79
2022/03/18 14:17:59;;;;;;;28.80;12.20;;;16.70;99.90;;;;;;5017506;28;20226;-77
2022/03/18 14:20:28;;;;;;;25.60;11.07;;;16.60;99.90;;;;;;5020398;28;20227;-81
2022/03/18 14:22:57;;;;;;;28.95;11.43;;;16.60;99.90;;;;;;5019457;28;20223;-78
2022/03/18 14:25:29;;;;;;;26.13;12.05;;;16.60;99.90;;;;;;5014922;28;20192;-81
2022/03/18 14:27:56;;;;;;;28.60;12.02;;;16.60;99.90;;;;;;5017305;28;20240;-78
2022/03/18 14:30:24;;;;;;;18.15;11.20;;;16.60;99.90;;;;;;5017048;28;20586;-83
2022/03/18 14:32:54;;;;;;;18.45;11.27;;;16.60;99.90;;;;;;5016490;28;20262;-77
2022/03/18 14:35:22;;;;;;;23.17;11.77;;;16.60;99.90;;;;;;5019482;28;20223;-78